Time;durP1;ratioP1;P1;durP2;ratioP2;P2;SDS_P1;SDS_P2;PMS_P1;PMS_P2;Temp;Humidity;BMP_temperature;BMP_pressure;BME280_temperature;BME280_humidity;BME280_pressure;Samples;Min_cycle;Max_cycle;Signal;HPM_P1;HPM_P2
2021/03/13 00:00:44;;;;;;;9.60;2.35;;;;;;;7.49;90.67;99731.13;5109473;27;20510;-72
2021/03/13 00:03:09;;;;;;;18.10;2.53;;;;;;;7.40;90.91;99726.44;5102869;27;20039;-72
2021/03/13 00:05:41;;;;;;;16.98;3.15;;;;;;;7.44;91.06;99724.41;5118964;27;20039;-73
2021/03/13 00:08:07;;;;;;;17.95;2.17;;;;;;;7.54;91.99;99725.47;5115311;27;20047;-72
2021/03/13 00:10:34;;;;;;;13.50;1.55;;;;;;;7.52;92.50;99711.41;5108356;27;20035;-72
2021/03/13 00:13:00;;;;;;;14.15;2.13;;;;;;;7.61;92.14;99716.94;5101695;27;20036;-72
2021/03/13 00:15:28;;;;;;;12.93;1.80;;;;;;;7.51;92.09;99707.00;5102339;28;20064;-72
2021/03/13 00:17:56;;;;;;;18.17;2.10;;;;;;;7.59;91.62;99704.69;5100470;28;20020;-72
2021/03/13 00:20:25;;;;;;;17.58;2.80;;;;;;;7.55;91.81;99700.50;5103623;28;20031;-72
2021/03/13 00:22:52;;;;;;;10.65;1.80;;;;;;;7.64;91.75;99687.38;5111437;27;20031;-72
2021/03/13 00:25:18;;;;;;;11.23;2.08;;;;;;;7.68;90.77;99693.34;5106713;27;20397;-72
2021/03/13 00:27:46;;;;;;;9.80;1.63;;;;;;;7.66;90.88;99690.78;5109017;28;20118;-72
2021/03/13 00:30:28;;;;;;;12.48;1.80;;;;;;;7.63;91.02;99677.66;5104366;27;20084;-72
2021/03/13 00:32:59;;;;;;;9.75;2.10;;;;;;;7.60;91.40;99677.84;5104344;27;20105;-72
2021/03/13 00:35:27;;;;;;;11.20;1.90;;;;;;;7.74;92.00;99671.56;5106628;28;20382;-72
2021/03/13 00:37:52;;;;;;;8.80;1.45;;;;;;;7.69;92.07;99671.03;5102482;27;20572;-72
2021/03/13 00:40:20;;;;;;;10.75;2.22;;;;;;;7.65;92.12;99669.53;5098098;28;20051;-72
2021/03/13 00:42:46;;;;;;;7.65;2.08;;;;;;;7.68;92.70;99661.31;5116417;27;20027;-71
2021/03/13 00:45:14;;;;;;;7.88;2.72;;;;;;;7.62;93.88;99665.25;5105369;27;20550;-72
2021/03/13 00:47:40;;;;;;;10.15;2.17;;;;;;;7.54;95.04;99661.38;5104243;28;20043;-72
2021/03/13 00:50:07;;;;;;;6.07;2.35;;;;;;;7.62;96.10;99653.72;5112641;27;20043;-73
2021/03/13 00:52:33;;;;;;;9.48;2.35;;;;;;;7.59;96.79;99651.28;5110765;27;20035;-72
2021/03/13 00:54:58;;;;;;;6.93;2.83;;;;;;;7.54;97.23;99643.56;5099798;27;20051;-72
2021/03/13 00:57:24;;;;;;;9.32;3.28;;;;;;;7.51;97.76;99646.44;5119305;27;20062;-72
2021/03/13 00:59:50;;;;;;;7.65;2.22;;;;;;;7.48;98.41;99641.31;5109984;27;20023;-72
2021/03/13 01:02:16;;;;;;;14.55;2.78;;;;;;;7.50;98.56;99641.22;5116299;27;20031;-72
2021/03/13 01:04:42;;;;;;;9.05;2.50;;;;;;;7.57;99.86;99629.16;5115207;27;20032;-72
2021/03/13 01:07:07;;;;;;;8.77;2.63;;;;;;;7.52;100.00;99623.28;5096183;27;20032;-72
2021/03/13 01:09:33;;;;;;;9.63;2.30;;;;;;;7.46;100.00;99621.03;5117744;27;20542;-72
2021/03/13 01:11:59;;;;;;;15.93;3.35;;;;;;;7.45;100.00;99613.97;5086649;28;20535;-72
2021/03/13 01:14:25;;;;;;;9.80;2.67;;;;;;;7.34;100.00;99603.19;5097871;27;20023;-71
2021/03/13 01:16:51;;;;;;;8.70;2.88;;;;;;;7.34;100.00;99605.88;5114993;27;20038;-71
2021/03/13 01:19:17;;;;;;;13.82;2.80;;;;;;;7.29;100.00;99584.81;5108370;27;20128;-72
2021/03/13 01:21:44;;;;;;;10.55;2.67;;;;;;;7.20;100.00;99582.78;5103320;28;20034;-72
2021/03/13 01:24:11;;;;;;;10.95;2.92;;;;;;;7.22;100.00;99587.03;5102061;28;20119;-72
2021/03/13 01:26:39;;;;;;;16.05;3.45;;;;;;;7.17;100.00;99567.81;5097324;28;20035;-72
2021/03/13 01:29:08;;;;;;;12.52;4.20;;;;;;;7.15;100.00;99561.75;5109109;27;20039;-71
2021/03/13 01:31:42;;;;;;;6.90;2.90;;;;;;;7.08;100.00;99568.47;5110296;27;20115;-72
2021/03/13 01:34:07;;;;;;;9.52;3.13;;;;;;;7.10;100.00;99555.00;5087325;28;20081;-72
2021/03/13 01:36:37;;;;;;;11.68;3.47;;;;;;;7.00;100.00;99546.78;5108828;27;20569;-72
2021/03/13 01:39:03;;;;;;;9.73;3.30;;;;;;;7.08;100.00;99547.13;5098375;28;20043;-72
2021/03/13 01:41:29;;;;;;;16.50;3.67;;;;;;;7.03;100.00;99538.59;5109767;28;20054;-72
2021/03/13 01:43:54;;;;;;;10.80;3.28;;;;;;;7.02;100.00;99526.19;5099192;28;20047;-72
2021/03/13 01:46:21;;;;;;;13.38;3.97;;;;;;;7.04;100.00;99513.59;5088592;28;20020;-71
2021/03/13 01:48:51;;;;;;;11.98;3.55;;;;;;;6.93;100.00;99499.28;5096676;28;20152;-72
2021/03/13 01:51:20;;;;;;;9.10;4.20;;;;;;;6.97;100.00;99495.47;5094319;28;20607;-72
2021/03/13 01:53:48;;;;;;;9.10;3.97;;;;;;;6.90;100.00;99489.69;5095051;28;20043;-71
2021/03/13 01:56:18;;;;;;;12.15;4.38;;;;;;;6.86;100.00;99488.19;5108051;27;20127;-72
2021/03/13 01:58:45;;;;;;;14.55;4.05;;;;;;;6.89;100.00;99477.31;5097337;28;20059;-72
2021/03/13 02:01:15;;;;;;;10.23;3.92;;;;;;;6.87;100.00;99474.75;5089334;28;20402;-71
2021/03/13 02:03:41;;;;;;;10.70;4.13;;;;;;;6.90;100.00;99465.69;5073286;28;20044;-72
2021/03/13 02:06:08;;;;;;;6.38;4.03;;;;;;;6.83;100.00;99457.25;5109786;27;20034;-72
2021/03/13 02:08:46;;;;;;;12.82;4.28;;;;;;;6.90;100.00;99463.88;5091691;27;20032;-72
2021/03/13 02:11:28;;;;;;;7.82;4.07;;;;;;;6.87;100.00;99455.22;5092706;28;20036;-72
2021/03/13 02:14:12;;;;;;;7.90;3.53;;;;;;;6.90;100.00;99447.03;5091323;28;20028;-72
2021/03/13 02:16:51;;;;;;;9.52;3.55;;;;;;;6.81;100.00;99445.84;5093258;27;20127;-72
2021/03/13 02:19:23;;;;;;;7.28;3.47;;;;;;;6.85;100.00;99433.16;5092806;27;20027;-72
2021/03/13 02:22:03;;;;;;;9.33;4.03;;;;;;;6.85;100.00;99422.50;5091535;28;20085;-71
2021/03/13 02:25:05;;;;;;;6.72;2.80;;;;;;;6.79;100.00;99429.09;5092038;27;20034;-71
2021/03/13 02:27:43;;;;;;;7.10;3.42;;;;;;;6.83;100.00;99411.06;5090549;27;20040;-72
2021/03/13 02:30:26;;;;;;;8.27;2.85;;;;;;;6.83;100.00;99411.94;5097378;27;20024;-71
2021/03/13 02:33:15;;;;;;;7.53;3.28;;;;;;;6.78;100.00;99386.53;5102507;27;20023;-73
2021/03/13 02:36:00;;;;;;;8.05;3.47;;;;;;;6.81;100.00;99388.97;5101210;27;20478;-72
2021/03/13 02:38:48;;;;;;;7.13;3.00;;;;;;;6.84;100.00;99378.13;5103970;27;20035;-71
2021/03/13 02:41:20;;;;;;;5.03;2.65;;;;;;;6.85;100.00;99379.81;5113153;27;20718;-71
2021/03/13 02:43:53;;;;;;;5.43;2.72;;;;;;;6.76;100.00;99375.97;5112612;27;20110;-72
2021/03/13 02:46:22;;;;;;;7.60;3.05;;;;;;;6.81;100.00;99367.66;5104927;27;20027;-72
2021/03/13 02:48:50;;;;;;;14.82;3.17;;;;;;;6.76;100.00;99353.78;5093719;28;20035;-72
2021/03/13 02:51:26;;;;;;;8.13;2.78;;;;;;;6.80;100.00;99339.28;5104682;27;20034;-71
2021/03/13 02:53:56;;;;;;;6.32;2.50;;;;;;;6.76;100.00;99337.78;5098402;27;20490;-72
2021/03/13 02:56:23;;;;;;;6.80;2.20;;;;;;;6.84;100.00;99324.78;5105974;27;20027;-72
2021/03/13 02:58:52;;;;;;;7.00;2.92;;;;;;;6.89;100.00;99325.28;5093484;28;20144;-72
2021/03/13 03:01:25;;;;;;;10.02;2.20;;;;;;;6.91;100.00;99315.38;5097071;28;20060;-71
2021/03/13 03:03:52;;;;;;;9.73;2.20;;;;;;;6.84;100.00;99314.97;5104285;27;20032;-71
2021/03/13 03:06:24;;;;;;;4.60;2.13;;;;;;;6.91;100.00;99305.53;5095611;28;20028;-72
2021/03/13 03:08:52;;;;;;;4.75;2.08;;;;;;;6.85;100.00;99305.16;5095263;28;20028;-72
2021/03/13 03:11:26;;;;;;;4.57;2.15;;;;;;;6.80;100.00;99292.13;5097566;27;20138;-72
2021/03/13 03:13:57;;;;;;;5.28;1.70;;;;;;;6.90;100.00;99281.66;5106259;27;20044;-72
2021/03/13 03:16:24;;;;;;;6.88;2.58;;;;;;;6.89;100.00;99274.63;5100784;28;20031;-71
2021/03/13 03:18:55;;;;;;;6.68;2.70;;;;;;;6.93;100.00;99270.75;5111001;27;20051;-72
2021/03/13 03:21:22;;;;;;;6.03;1.98;;;;;;;6.94;100.00;99263.63;5102641;28;20030;-71
2021/03/13 03:23:49;;;;;;;8.07;1.80;;;;;;;6.97;100.00;99256.25;5088307;28;20061;-72
2021/03/13 03:26:18;;;;;;;4.05;1.40;;;;;;;6.93;100.00;99236.09;5106740;28;20496;-72
2021/03/13 03:28:46;;;;;;;4.20;1.85;;;;;;;6.97;100.00;99234.91;5089310;28;20024;-72
2021/03/13 03:31:16;;;;;;;3.25;1.65;;;;;;;6.99;100.00;99227.63;5101944;28;20038;-72
2021/03/13 03:33:43;;;;;;;5.88;1.63;;;;;;;7.04;100.00;99216.63;5103795;28;20040;-72
2021/03/13 03:36:11;;;;;;;4.50;1.42;;;;;;;7.01;100.00;99212.38;5100037;28;20117;-72
2021/03/13 03:38:38;;;;;;;4.28;1.65;;;;;;;7.02;100.00;99205.22;5097736;28;20059;-72
2021/03/13 03:41:08;;;;;;;7.95;1.73;;;;;;;7.00;100.00;99191.16;5112707;28;20032;-72
2021/03/13 03:43:45;;;;;;;3.53;1.50;;;;;;;7.00;100.00;99197.34;5091882;28;20434;-72
2021/03/13 03:46:15;;;;;;;8.00;1.80;;;;;;;6.99;100.00;99179.63;5103858;28;20070;-71
2021/03/13 03:48:42;;;;;;;5.65;1.10;;;;;;;7.12;100.00;99176.91;5102728;28;20454;-72
2021/03/13 03:51:14;;;;;;;4.70;1.27;;;;;;;7.06;100.00;99180.88;5105328;28;20024;-72
2021/03/13 03:54:05;;;;;;;6.40;1.45;;;;;;;7.14;100.00;99161.63;5096678;28;20034;-72
2021/03/13 03:56:30;;;;;;;5.32;1.35;;;;;;;7.25;100.00;99161.69;5107033;28;21610;-72
2021/03/13 03:58:57;;;;;;;10.15;2.17;;;;;;;7.29;100.00;99153.31;5108797;28;20038;-71
2021/03/13 04:01:25;;;;;;;6.05;1.65;;;;;;;7.34;100.00;99146.78;5099647;28;20031;-71
2021/03/13 04:04:02;;;;;;;8.00;1.48;;;;;;;7.32;100.00;99157.59;5108938;28;20023;-72
2021/03/13 04:06:27;;;;;;;3.38;1.15;;;;;;;7.35;100.00;99143.13;5116264;28;20036;-72
2021/03/13 04:09:01;;;;;;;10.60;1.55;;;;;;;7.36;100.00;99135.03;5097307;28;20082;-73
2021/03/13 04:11:28;;;;;;;5.68;1.85;;;;;;;7.37;100.00;99139.38;5104463;28;20040;-72
2021/03/13 04:13:56;;;;;;;5.13;1.08;;;;;;;7.43;100.00;99125.56;5096155;28;20031;-71
2021/03/13 04:16:22;;;;;;;6.97;1.65;;;;;;;7.38;100.00;99122.41;5112876;27;20023;-72
2021/03/13 04:18:47;;;;;;;12.32;1.40;;;;;;;7.43;100.00;99106.03;5109732;27;20084;-72
2021/03/13 04:21:14;;;;;;;5.90;1.45;;;;;;;7.42;100.00;99099.84;5106128;27;20478;-72
2021/03/13 04:23:46;;;;;;;12.60;1.42;;;;;;;7.38;100.00;99097.53;5106592;27;20028;-73
2021/03/13 04:26:12;;;;;;;3.88;1.17;;;;;;;7.44;100.00;99073.91;5104267;27;20031;-72
2021/03/13 04:28:37;;;;;;;8.68;1.60;;;;;;;7.44;100.00;99075.72;5092383;28;20048;-72
2021/03/13 04:31:05;;;;;;;9.63;1.27;;;;;;;7.47;100.00;99062.16;5117063;27;20057;-73
2021/03/13 04:33:32;;;;;;;6.97;1.30;;;;;;;7.46;100.00;99057.78;5115538;27;20055;-73
2021/03/13 04:35:59;;;;;;;6.38;1.23;;;;;;;7.44;100.00;99049.88;5108334;27;20042;-72
2021/03/13 04:38:25;;;;;;;5.97;1.75;;;;;;;7.42;100.00;99040.28;5114208;27;20031;-71
2021/03/13 04:40:51;;;;;;;10.27;2.13;;;;;;;7.46;100.00;99033.75;5112494;27;20035;-74
2021/03/13 04:43:20;;;;;;;6.80;1.15;;;;;;;7.47;100.00;99035.47;5121077;27;20035;-71
2021/03/13 04:45:47;;;;;;;9.18;1.25;;;;;;;7.42;100.00;99022.44;5107620;27;20739;-71
2021/03/13 04:48:14;;;;;;;4.43;1.00;;;;;;;7.48;100.00;99015.78;5104636;27;20034;-71
2021/03/13 04:50:41;;;;;;;6.28;1.00;;;;;;;7.47;100.00;99014.91;5100936;27;20039;-71
2021/03/13 04:53:07;;;;;;;8.07;1.40;;;;;;;7.55;100.00;99000.97;5115620;27;20492;-71
2021/03/13 04:55:32;;;;;;;4.50;1.38;;;;;;;7.55;100.00;99000.97;5116348;27;20036;-71
2021/03/13 04:57:58;;;;;;;3.45;1.10;;;;;;;7.57;100.00;98975.00;5100205;28;20097;-72
2021/03/13 05:00:23;;;;;;;30.50;9.48;;;;;;;7.53;100.00;98981.59;5096871;28;20031;-71
2021/03/13 05:02:49;;;;;;;11.02;2.45;;;;;;;7.56;100.00;98981.31;5103259;27;20058;-71
2021/03/13 05:05:14;;;;;;;5.05;1.23;;;;;;;7.56;100.00;98973.31;5100701;28;20044;-72
2021/03/13 05:07:40;;;;;;;7.72;2.88;;;;;;;7.56;100.00;98975.97;5104577;27;20070;-71
2021/03/13 05:10:08;;;;;;;13.65;5.22;;;;;;;7.49;100.00;98966.75;5102507;28;20031;-71
2021/03/13 05:12:36;;;;;;;4.43;1.50;;;;;;;7.56;100.00;98959.97;5111567;27;20497;-71
2021/03/13 05:15:04;;;;;;;5.07;1.15;;;;;;;7.55;100.00;98950.25;5103677;27;20042;-73
2021/03/13 05:17:30;;;;;;;2.28;1.00;;;;;;;7.61;100.00;98944.41;5105816;28;20031;-71
2021/03/13 05:19:55;;;;;;;8.80;1.00;;;;;;;7.61;100.00;98936.41;5107313;27;20089;-71
2021/03/13 05:22:21;;;;;;;2.47;1.05;;;;;;;7.66;100.00;98934.22;5111446;27;20034;-72
2021/03/13 05:24:47;;;;;;;8.48;0.82;;;;;;;7.69;100.00;98917.97;5094438;27;20103;-71
2021/03/13 05:27:12;;;;;;;8.35;2.80;;;;;;;7.62;100.00;98906.06;5112147;27;20035;-71
2021/03/13 05:29:38;;;;;;;2.92;0.80;;;;;;;7.71;100.00;98914.16;5108333;27;20023;-71
2021/03/13 05:32:03;;;;;;;6.28;1.20;;;;;;;7.74;100.00;98894.41;5110817;27;20085;-71
2021/03/13 05:34:29;;;;;;;2.70;0.70;;;;;;;7.75;100.00;98896.09;5102940;27;20465;-71
2021/03/13 05:36:54;;;;;;;7.35;0.80;;;;;;;7.72;100.00;98901.69;5105575;27;20031;-72
2021/03/13 05:39:20;;;;;;;5.10;1.02;;;;;;;7.83;100.00;98893.66;5105792;27;20051;-72
2021/03/13 05:41:47;;;;;;;5.90;0.95;;;;;;;7.92;100.00;98868.00;5106841;28;20478;-71
2021/03/13 05:44:13;;;;;;;4.72;0.88;;;;;;;7.86;100.00;98866.69;5102896;28;20035;-73
2021/03/13 05:46:45;;;;;;;4.18;0.95;;;;;;;7.86;100.00;98872.03;5110584;27;20028;-72
2021/03/13 05:49:11;;;;;;;4.10;1.00;;;;;;;7.86;100.00;98874.69;5104934;27;20055;-72
2021/03/13 05:51:41;;;;;;;3.97;0.65;;;;;;;7.92;100.00;98855.50;5107333;28;20031;-71
2021/03/13 05:54:06;;;;;;;3.38;0.73;;;;;;;7.87;100.00;98846.16;5098366;28;20066;-71
2021/03/13 05:56:33;;;;;;;5.20;0.75;;;;;;;7.95;100.00;98838.38;5112678;27;20122;-71
2021/03/13 05:59:00;;;;;;;4.32;1.00;;;;;;;7.99;100.00;98832.63;5100878;27;20019;-71
2021/03/13 06:01:28;;;;;;;6.05;1.30;;;;;;;7.97;100.00;98834.56;5118490;27;20038;-71
2021/03/13 06:03:54;;;;;;;7.15;1.30;;;;;;;7.95;100.00;98825.00;5105538;27;20027;-71
2021/03/13 06:06:24;;;;;;;10.35;0.95;;;;;;;8.00;100.00;98810.28;5118026;27;20039;-73
2021/03/13 06:08:51;;;;;;;5.22;0.80;;;;;;;7.96;100.00;98808.84;5112379;27;20039;-71
2021/03/13 06:11:17;;;;;;;5.57;0.95;;;;;;;7.97;100.00;98815.88;5104029;27;20036;-71
2021/03/13 06:13:43;;;;;;;3.78;0.82;;;;;;;7.98;100.00;98804.22;5098932;27;20549;-71
2021/03/13 06:16:09;;;;;;;1.58;0.47;;;;;;;7.95;100.00;98817.84;5082131;28;20051;-71
2021/03/13 06:19:03;;;;;;;5.55;0.90;;;;;;;7.98;100.00;98779.34;5099609;27;20504;-71
2021/03/13 06:21:33;;;;;;;7.03;0.80;;;;;;;7.99;100.00;98792.56;5094802;28;20040;-71
2021/03/13 06:24:01;;;;;;;7.50;0.65;;;;;;;7.97;100.00;98805.19;5098341;27;20118;-71
2021/03/13 06:26:48;;;;;;;3.50;0.88;;;;;;;8.00;100.00;98783.59;5120780;27;20037;-71
2021/03/13 06:29:14;;;;;;;2.15;0.75;;;;;;;8.03;100.00;98783.31;5103966;27;20035;-70
2021/03/13 06:31:40;;;;;;;4.22;0.65;;;;;;;8.06;100.00;98780.38;5102635;28;20031;-73
2021/03/13 06:34:06;;;;;;;5.65;0.82;;;;;;;8.08;100.00;98765.06;5100862;27;20042;-73
2021/03/13 06:36:31;;;;;;;4.70;0.60;;;;;;;8.04;100.00;98768.97;5110081;27;20032;-71
2021/03/13 06:38:56;;;;;;;4.80;0.82;;;;;;;8.07;100.00;98763.38;5114400;27;20114;-71
2021/03/13 06:41:24;;;;;;;3.58;1.10;;;;;;;8.07;100.00;98758.03;5107177;27;20042;-71
2021/03/13 06:43:51;;;;;;;0.98;0.60;;;;;;;8.10;100.00;98747.06;5105939;27;20039;-71
2021/03/13 06:46:28;;;;;;;3.95;0.98;;;;;;;8.13;100.00;98757.53;5112435;27;20035;-72
2021/03/13 06:48:54;;;;;;;2.95;0.70;;;;;;;8.19;100.00;98744.59;5106857;27;20092;-71
2021/03/13 06:51:19;;;;;;;3.65;0.60;;;;;;;8.21;100.00;98756.03;5107671;27;20027;-71
2021/03/13 06:54:06;;;;;;;2.53;0.52;;;;;;;8.24;100.00;98739.72;5085780;28;20078;-72
2021/03/13 06:56:37;;;;;;;2.17;0.82;;;;;;;8.28;100.00;98743.78;5109112;27;20050;-71
2021/03/13 06:59:18;;;;;;;1.88;0.52;;;;;;;8.22;100.00;98747.00;5104950;27;20023;-71
2021/03/13 07:01:44;;;;;;;0.95;0.43;;;;;;;8.24;100.00;98787.81;5109399;27;20039;-71
2021/03/13 07:04:11;;;;;;;4.47;0.50;;;;;;;8.22;100.00;98793.28;5101160;27;20032;-71
2021/03/13 07:06:46;;;;;;;4.30;0.43;;;;;;;8.10;100.00;98847.75;5114648;27;20045;-72
2021/03/13 07:09:12;;;;;;;5.57;0.90;;;;;;;7.99;100.00;98853.16;5099222;27;20492;-71
2021/03/13 07:11:37;;;;;;;3.53;0.50;;;;;;;7.88;100.00;98853.22;5098489;27;20023;-70
2021/03/13 07:14:03;;;;;;;3.25;0.60;;;;;;;7.87;100.00;98863.03;5098737;27;20724;-71
2021/03/13 07:16:37;;;;;;;4.30;0.80;;;;;;;7.86;100.00;98864.00;5112500;28;20027;-71
2021/03/13 07:19:11;;;;;;;5.15;0.90;;;;;;;7.79;100.00;98873.50;5099949;27;20032;-71
2021/03/13 07:21:39;;;;;;;3.20;0.80;;;;;;;7.69;100.00;98864.56;5088517;28;20042;-71
2021/03/13 07:24:07;;;;;;;2.08;0.52;;;;;;;7.57;99.81;98850.41;5104454;28;20101;-71
2021/03/13 07:26:37;;;;;;;3.63;0.68;;;;;;;7.57;99.73;98836.19;5096755;28;20516;-70
2021/03/13 07:29:05;;;;;;;2.72;1.25;;;;;;;7.49;98.06;98846.63;5105246;28;20494;-72
2021/03/13 07:31:34;;;;;;;3.00;0.47;;;;;;;7.45;98.83;98814.03;5099988;28;20058;-72
2021/03/13 07:34:03;;;;;;;2.67;0.60;;;;;;;7.39;98.64;98846.56;5095781;28;20062;-72
2021/03/13 07:36:31;;;;;;;1.02;0.45;;;;;;;7.42;97.51;98834.75;5107647;28;20058;-71
2021/03/13 07:39:01;;;;;;;3.13;0.60;;;;;;;7.41;96.64;98822.38;5107308;28;20114;-71
2021/03/13 07:41:31;;;;;;;1.85;0.50;;;;;;;7.37;97.48;98842.31;5107686;28;20073;-71
2021/03/13 07:43:56;;;;;;;7.13;0.55;;;;;;;7.37;97.00;98844.97;5101215;28;20028;-71
2021/03/13 07:46:23;;;;;;;1.67;0.50;;;;;;;7.38;96.89;98854.69;5094826;28;20488;-70
2021/03/13 07:48:49;;;;;;;1.70;0.43;;;;;;;7.40;96.43;98858.94;5107501;28;20031;-71
2021/03/13 07:51:14;;;;;;;1.55;0.50;;;;;;;7.31;94.52;98855.16;5102787;28;20040;-71
2021/03/13 07:53:43;;;;;;;5.07;1.60;;;;;;;7.36;93.54;98867.28;5109997;27;20490;-71
2021/03/13 07:56:12;;;;;;;3.35;1.27;;;;;;;7.36;93.68;98868.13;5121176;27;20039;-71
2021/03/13 07:58:41;;;;;;;1.17;0.50;;;;;;;7.38;94.16;98860.00;5104214;27;20036;-71
2021/03/13 08:01:08;;;;;;;3.47;0.60;;;;;;;7.37;94.02;98869.00;5116485;27;20045;-70
2021/03/13 08:03:34;;;;;;;2.05;0.43;;;;;;;7.39;93.95;98864.38;5111810;27;20027;-72
2021/03/13 08:06:00;;;;;;;4.22;0.75;;;;;;;7.36;94.85;98857.47;5106190;27;20039;-71
2021/03/13 08:08:40;;;;;;;1.58;0.63;;;;;;;7.43;93.46;98868.50;5104924;28;20531;-71
2021/03/13 08:11:07;;;;;;;2.50;0.47;;;;;;;7.46;93.90;98878.94;5110762;27;20249;-71
2021/03/13 08:13:36;;;;;;;2.38;0.52;;;;;;;7.52;93.36;98876.63;5107109;27;20027;-71
2021/03/13 08:16:06;;;;;;;6.30;0.63;;;;;;;7.52;92.80;98881.09;5111743;27;20042;-71
2021/03/13 08:18:42;;;;;;;2.08;0.85;;;;;;;7.46;93.04;98884.28;5107954;27;20056;-71
2021/03/13 08:21:19;;;;;;;6.03;0.63;;;;;;;7.52;93.20;98879.28;5109016;27;20028;-71
2021/03/13 08:23:48;;;;;;;1.42;0.50;;;;;;;7.50;92.08;98888.38;5109300;27;20061;-72
2021/03/13 08:26:15;;;;;;;5.80;0.60;;;;;;;7.52;92.81;98899.78;5115822;27;20032;-71
2021/03/13 08:28:50;;;;;;;1.67;0.63;;;;;;;7.55;91.75;98884.38;5113850;27;20077;-71
2021/03/13 08:31:21;;;;;;;3.03;0.85;;;;;;;7.59;92.62;98883.13;5110756;27;20040;-71
2021/03/13 08:33:48;;;;;;;6.60;0.80;;;;;;;7.55;92.65;98895.03;5105560;27;20048;-71
2021/03/13 08:36:18;;;;;;;1.17;0.50;;;;;;;7.57;92.59;98902.94;5106091;28;20069;-71
2021/03/13 08:39:02;;;;;;;3.97;0.85;;;;;;;7.59;92.60;98890.31;5107350;28;20054;-71
2021/03/13 08:41:43;;;;;;;4.65;1.30;;;;;;;7.60;93.48;98908.84;5107996;27;20034;-70
2021/03/13 08:44:29;;;;;;;7.50;0.80;;;;;;;7.65;92.52;98905.84;5100834;28;20168;-70
2021/03/13 08:47:08;;;;;;;2.05;0.98;;;;;;;7.65;93.00;98900.50;5111964;28;20070;-71
2021/03/13 08:49:39;;;;;;;9.20;0.70;;;;;;;7.72;93.15;98913.22;5100656;28;20598;-71
2021/03/13 08:52:04;;;;;;;2.05;0.60;;;;;;;7.73;94.27;98904.22;5109305;27;20085;-71
2021/03/13 08:54:45;;;;;;;2.15;0.57;;;;;;;7.80;93.38;98903.72;5108922;27;20035;-71
2021/03/13 08:57:16;;;;;;;4.57;0.60;;;;;;;7.80;94.19;98904.56;5107114;27;20131;-71
2021/03/13 08:59:43;;;;;;;4.60;0.50;;;;;;;7.84;94.07;98900.66;5107300;27;20030;-71
2021/03/13 09:02:34;;;;;;;3.75;0.73;;;;;;;7.88;93.24;98907.47;5107087;27;20054;-72
2021/03/13 09:05:07;;;;;;;1.50;0.65;;;;;;;7.96;93.42;98915.69;5085520;28;20070;-71
2021/03/13 09:07:33;;;;;;;3.53;0.70;;;;;;;7.97;92.90;98919.22;5108173;27;20043;-72
2021/03/13 09:09:59;;;;;;;6.47;1.17;;;;;;;7.99;92.41;98902.09;5098469;28;20045;-71
2021/03/13 09:12:25;;;;;;;4.25;0.90;;;;;;;8.00;92.99;98905.63;5105935;28;20112;-71
2021/03/13 09:14:57;;;;;;;2.53;0.70;;;;;;;8.07;93.34;98902.31;5105637;28;20066;-72
2021/03/13 09:17:25;;;;;;;7.70;0.90;;;;;;;8.06;93.02;98897.94;5116426;27;20631;-72
2021/03/13 09:19:51;;;;;;;6.78;1.20;;;;;;;8.06;91.64;98889.09;5104989;27;20070;-71
2021/03/13 09:22:18;;;;;;;4.20;0.70;;;;;;;8.09;90.83;98892.34;5113963;27;20042;-71
2021/03/13 09:24:50;;;;;;;8.20;0.95;;;;;;;7.96;91.57;98888.97;5114676;27;20405;-71
2021/03/13 09:27:16;;;;;;;6.03;1.00;;;;;;;7.97;91.27;98889.81;5106929;27;20503;-71
2021/03/13 09:29:42;;;;;;;5.45;1.00;;;;;;;7.91;91.03;98891.19;5115623;27;20027;-72
2021/03/13 09:32:08;;;;;;;5.38;1.70;;;;;;;8.18;89.85;98876.53;5108053;27;20123;-71
2021/03/13 09:34:38;;;;;;;9.95;1.08;;;;;;;8.13;88.90;98880.44;5105113;27;20034;-71
2021/03/13 09:37:16;;;;;;;6.45;0.90;;;;;;;8.21;88.62;98881.63;5108640;27;20028;-72
2021/03/13 09:39:44;;;;;;;10.05;1.83;;;;;;;8.26;87.37;98885.59;5104333;28;20036;-72
2021/03/13 09:42:20;;;;;;;8.50;1.30;;;;;;;8.32;87.59;98897.63;5109962;27;20036;-70
2021/03/13 09:44:53;;;;;;;7.22;1.05;;;;;;;8.35;84.82;98895.53;5113027;27;20028;-71
2021/03/13 09:47:32;;;;;;;7.07;1.05;;;;;;;8.50;82.69;98891.59;5100076;28;20035;-71
2021/03/13 09:49:59;;;;;;;6.75;1.80;;;;;;;8.56;83.71;98906.25;5108927;28;20553;-70
2021/03/13 09:52:33;;;;;;;12.90;2.13;;;;;;;8.66;83.87;98888.44;5106138;27;20104;-70
2021/03/13 09:55:12;;;;;;;5.70;1.00;;;;;;;8.79;82.75;98894.44;5089386;28;20062;-72
2021/03/13 09:57:42;;;;;;;12.65;1.60;;;;;;;8.73;82.31;98900.31;5101270;27;20374;-70
2021/03/13 10:00:11;;;;;;;8.57;1.40;;;;;;;8.75;81.47;98889.47;5094274;27;20031;-72
2021/03/13 10:02:39;;;;;;;11.35;1.35;;;;;;;8.85;81.60;98904.59;5109930;27;20135;-71
2021/03/13 10:05:05;;;;;;;10.68;2.53;;;;;;;9.31;81.19;98901.47;5120130;27;20115;-71
2021/03/13 10:07:31;;;;;;;17.88;1.60;;;;;;;9.42;79.05;98908.53;5104803;27;20039;-72
2021/03/13 10:10:00;;;;;;;14.00;1.70;;;;;;;9.30;78.58;98913.16;5105266;27;20039;-71
2021/03/13 10:12:28;;;;;;;13.35;1.92;;;;;;;9.26;78.58;98905.50;5111930;27;20036;-71
2021/03/13 10:14:55;;;;;;;12.07;2.17;;;;;;;9.30;78.37;98906.94;5107323;27;20379;-71
2021/03/13 10:17:21;;;;;;;9.05;1.52;;;;;;;9.38;78.04;98904.41;5108495;27;20179;-71
2021/03/13 10:19:47;;;;;;;15.15;1.95;;;;;;;9.35;77.38;98904.72;5116307;27;20537;-71
2021/03/13 10:22:18;;;;;;;19.90;2.55;;;;;;;9.43;78.04;98902.22;5104435;27;20028;-71
2021/03/13 10:24:49;;;;;;;14.30;2.40;;;;;;;9.45;76.07;98910.09;5114982;27;20538;-71
2021/03/13 10:27:27;;;;;;;17.25;3.03;;;;;;;9.51;75.50;98910.38;5107776;28;20039;-71
2021/03/13 10:30:01;;;;;;;16.02;1.88;;;;;;;9.88;77.38;98901.72;5113853;27;20035;-71
2021/03/13 10:32:35;;;;;;;14.70;2.17;;;;;;;9.96;74.16;98901.91;5099880;27;20024;-70
2021/03/13 10:35:08;;;;;;;12.70;2.65;;;;;;;9.93;74.42;98891.47;5099066;27;20406;-71
2021/03/13 10:37:40;;;;;;;21.92;2.75;;;;;;;9.82;73.98;98886.22;5102611;28;20035;-72
2021/03/13 10:40:08;;;;;;;20.67;2.43;;;;;;;9.64;74.65;98889.56;5096584;28;20137;-71
2021/03/13 10:42:36;;;;;;;13.15;2.63;;;;;;;9.39;78.14;98900.75;5087798;28;20782;-71
2021/03/13 10:45:16;;;;;;;19.70;2.85;;;;;;;9.14;82.34;98882.47;5096720;28;20771;-70
2021/03/13 10:47:42;;;;;;;18.05;1.98;;;;;;;9.05;85.38;98894.00;5107676;27;20425;-71
2021/03/13 10:50:09;;;;;;;19.33;3.20;;;;;;;9.05;85.76;98910.06;5099309;28;20490;-71
2021/03/13 10:52:35;;;;;;;18.00;2.78;;;;;;;9.45;89.36;98908.25;5106900;27;20033;-70
2021/03/13 10:55:01;;;;;;;14.20;2.03;;;;;;;9.59;87.51;98910.56;5103892;27;20112;-71
2021/03/13 10:57:27;;;;;;;18.02;2.50;;;;;;;9.64;82.05;98919.03;5114591;27;20030;-72
2021/03/13 10:59:52;;;;;;;14.90;2.10;;;;;;;9.60;83.53;98906.91;5107796;27;20031;-71
2021/03/13 11:02:18;;;;;;;20.00;2.53;;;;;;;9.52;79.78;98905.88;5098894;27;20031;-71
2021/03/13 11:04:43;;;;;;;20.85;2.50;;;;;;;9.47;79.02;98916.16;5107376;27;20028;-71
2021/03/13 11:07:09;;;;;;;17.92;3.13;;;;;;;9.46;77.96;98903.75;5111023;28;20387;-70
2021/03/13 11:09:34;;;;;;;21.55;2.85;;;;;;;9.55;76.79;98893.09;5114290;27;20031;-71
2021/03/13 11:12:00;;;;;;;16.20;1.85;;;;;;;9.71;77.12;98885.34;5108454;27;20038;-71
2021/03/13 11:14:27;;;;;;;21.17;2.08;;;;;;;9.89;75.45;98884.69;5110544;27;20098;-71
2021/03/13 11:16:53;;;;;;;20.70;1.92;;;;;;;10.02;74.85;98879.91;5112454;27;20122;-71
2021/03/13 11:19:18;;;;;;;11.40;2.50;;;;;;;10.02;72.04;98880.75;5112296;27;20366;-71
2021/03/13 11:21:44;;;;;;;13.85;2.03;;;;;;;10.03;72.93;98886.97;5103010;28;20035;-71
2021/03/13 11:24:10;;;;;;;16.42;1.77;;;;;;;10.01;71.63;98895.13;5102086;28;20039;-71
2021/03/13 11:26:35;;;;;;;13.73;2.20;;;;;;;9.79;72.67;98890.03;5111410;28;20073;-71
2021/03/13 11:29:01;;;;;;;13.93;1.95;;;;;;;9.66;74.48;98917.06;5109846;28;20061;-71
2021/03/13 11:31:26;;;;;;;11.57;2.33;;;;;;;9.37;81.71;98947.41;5099314;28;20489;-70
2021/03/13 11:33:52;;;;;;;12.77;1.65;;;;;;;9.09;90.17;98922.19;5112683;28;20023;-71
2021/03/13 11:36:18;;;;;;;10.52;2.13;;;;;;;9.08;89.79;98904.44;5096699;28;20917;-71
2021/03/13 11:38:44;;;;;;;18.95;2.83;;;;;;;9.21;90.82;98895.19;5093800;28;20024;-71
2021/03/13 11:41:10;;;;;;;12.02;1.52;;;;;;;9.20;90.34;98888.16;5106840;28;20056;-70
2021/03/13 11:43:38;;;;;;;14.60;2.75;;;;;;;9.38;91.29;98885.69;5110184;28;20419;-71